createdAt,value
2023-01-13T00:00:09.167Z,11.50
2023-01-13T00:02:19.109Z,14.88
2023-01-13T00:04:06.683Z,16.73
2023-01-13T00:05:53.828Z,12.65
2023-01-13T00:07:41.229Z,11.70
2023-01-13T00:09:28.722Z,9.57
2023-01-13T00:11:16.040Z,9.32
2023-01-13T00:13:05.510Z,9.50
2023-01-13T00:14:52.980Z,12.90
2023-01-13T00:16:40.123Z,18.90
2023-01-13T00:18:27.820Z,10.98
2023-01-13T00:22:02.532Z,35.55
2023-01-13T00:23:51.881Z,26.65
2023-01-13T00:25:39.389Z,23.13
2023-01-13T00:27:26.611Z,14.98
2023-01-13T00:29:13.933Z,14.15
2023-01-13T00:31:10.042Z,16.52
2023-01-13T00:32:57.465Z,13.32
2023-01-13T00:34:44.705Z,17.27
2023-01-13T00:36:32.496Z,34.85
2023-01-13T00:38:19.792Z,47.88
2023-01-13T00:40:07.848Z,39.47
2023-01-13T00:42:13.979Z,27.35
2023-01-13T00:44:01.329Z,28.48
2023-01-13T00:45:51.583Z,19.80
2023-01-13T00:47:38.789Z,10.00
2023-01-13T00:49:25.975Z,15.80
2023-01-13T00:51:15.080Z,15.00
2023-01-13T00:53:02.554Z,14.52
2023-01-13T00:54:49.958Z,10.82
2023-01-13T00:56:40.475Z,45.90
2023-01-13T00:58:28.719Z,62.00
2023-01-13T01:00:16.074Z,49.38
2023-01-13T01:02:03.824Z,26.60
2023-01-13T01:03:53.002Z,18.92
2023-01-13T01:05:40.916Z,19.30
2023-01-13T01:07:28.441Z,16.23
2023-01-13T01:09:16.596Z,13.82
2023-01-13T01:11:09.114Z,13.52
2023-01-13T01:12:56.698Z,15.82
2023-01-13T01:14:43.931Z,32.05
2023-01-13T01:16:33.454Z,59.42
2023-01-13T01:18:20.770Z,80.35
2023-01-13T01:20:08.741Z,38.60
2023-01-13T01:21:56.138Z,24.88
2023-01-13T01:23:43.849Z,15.80
2023-01-13T01:25:33.175Z,10.57
2023-01-13T01:27:20.849Z,15.25
2023-01-13T01:29:09.144Z,14.90
2023-01-13T01:30:58.492Z,13.63
2023-01-13T01:32:46.020Z,17.30
2023-01-13T01:34:34.137Z,13.20
2023-01-13T01:36:22.932Z,13.27
2023-01-13T01:38:10.987Z,10.23
2023-01-13T01:39:58.146Z,11.55
2023-01-13T01:42:05.286Z,14.00
2023-01-13T01:45:47.994Z,10.88
2023-01-13T01:47:35.501Z,18.23
2023-01-13T01:49:32.623Z,22.17
2023-01-13T01:51:19.802Z,22.48
2023-01-13T01:53:11.500Z,19.42
2023-01-13T01:55:16.630Z,14.50
2023-01-13T01:57:04.347Z,11.65
2023-01-13T01:58:53.791Z,12.27
2023-01-13T02:00:41.368Z,12.93
2023-01-13T02:02:30.571Z,13.85
2023-01-13T02:04:24.218Z,13.27
2023-01-13T02:06:13.480Z,10.55
2023-01-13T02:08:01.758Z,11.02
2023-01-13T02:09:49.570Z,12.02
2023-01-13T02:11:56.490Z,12.07
2023-01-13T02:13:43.702Z,12.40
2023-01-13T02:15:46.191Z,14.32
2023-01-13T02:17:54.393Z,12.95
2023-01-13T02:20:12.653Z,11.68
2023-01-13T02:22:02.691Z,14.50
2023-01-13T02:24:30.563Z,13.98
2023-01-13T02:26:38.036Z,13.15
2023-01-13T02:29:11.530Z,12.05
2023-01-13T02:31:35.594Z,10.23
2023-01-13T02:33:42.424Z,15.18
2023-01-13T02:35:39.046Z,11.23
2023-01-13T02:37:29.901Z,14.65
2023-01-13T02:39:21.787Z,13.38
2023-01-13T02:41:43.121Z,17.23
2023-01-13T02:43:57.607Z,11.90
2023-01-13T02:46:01.874Z,13.13
2023-01-13T02:47:52.973Z,14.75
2023-01-13T02:49:55.556Z,16.25
2023-01-13T02:51:45.823Z,21.20
2023-01-13T02:53:37.166Z,13.95
2023-01-13T02:55:38.984Z,16.20
2023-01-13T02:57:28.028Z,14.25
2023-01-13T02:59:15.403Z,13.70
2023-01-13T03:01:03.405Z,13.35
2023-01-13T03:02:52.712Z,15.48
2023-01-13T03:07:13.626Z,15.68
2023-01-13T03:09:29.967Z,17.58
2023-01-13T03:11:20.247Z,14.32
2023-01-13T03:13:33.025Z,15.18
2023-01-13T03:15:52.027Z,13.15
2023-01-13T03:17:49.979Z,11.77
2023-01-13T03:20:07.378Z,11.20
2023-01-13T03:22:11.668Z,11.32
2023-01-13T03:24:20.883Z,11.70
2023-01-13T03:26:15.772Z,11.02
2023-01-13T03:28:06.901Z,15.20
2023-01-13T03:30:23.171Z,14.85
2023-01-13T03:32:27.300Z,12.70
2023-01-13T03:34:19.441Z,11.20
2023-01-13T03:36:11.572Z,13.30
2023-01-13T03:38:06.241Z,16.83
2023-01-13T03:40:16.491Z,15.38
2023-01-13T03:42:14.060Z,12.27
2023-01-13T03:44:22.946Z,20.90
2023-01-13T03:46:16.344Z,15.35
2023-01-13T03:48:09.540Z,17.58
2023-01-13T03:50:02.413Z,12.35
2023-01-13T03:51:58.989Z,15.23
2023-01-13T03:54:00.593Z,17.55
2023-01-13T03:55:53.249Z,10.05
2023-01-13T03:57:47.739Z,10.88
2023-01-13T03:59:40.171Z,9.80
2023-01-13T04:01:54.307Z,8.88
2023-01-13T04:03:44.587Z,12.40
2023-01-13T04:05:35.375Z,11.60
2023-01-13T04:07:37.676Z,8.85
2023-01-13T04:09:36.864Z,9.15
2023-01-13T04:11:36.018Z,8.80
2023-01-13T04:13:28.545Z,8.52
2023-01-13T04:15:24.951Z,9.80
2023-01-13T04:17:12.584Z,9.90
2023-01-13T04:19:00.132Z,10.77
2023-01-13T04:20:49.467Z,9.82
2023-01-13T04:22:36.942Z,9.20
2023-01-13T04:24:24.803Z,10.90
2023-01-13T04:26:12.118Z,10.85
2023-01-13T04:27:59.266Z,11.45
2023-01-13T04:29:46.780Z,7.45
2023-01-13T04:31:33.930Z,10.63
2023-01-13T04:33:21.518Z,11.48
2023-01-13T04:35:09.297Z,6.90
2023-01-13T04:36:56.649Z,7.22
2023-01-13T04:38:43.793Z,9.00
2023-01-13T04:40:31.985Z,11.88
2023-01-13T04:44:06.503Z,10.50
2023-01-13T04:45:55.294Z,11.57
2023-01-13T04:47:42.678Z,12.15
2023-01-13T04:49:29.881Z,8.65
2023-01-13T04:51:17.381Z,11.90
2023-01-13T04:53:04.714Z,8.63
2023-01-13T04:54:51.915Z,7.80
2023-01-13T04:56:39.388Z,8.07
2023-01-13T04:58:26.887Z,12.55
2023-01-13T05:00:17.592Z,13.38
2023-01-13T05:02:05.347Z,8.48
2023-01-13T05:03:52.752Z,7.28
2023-01-13T05:05:40.934Z,7.68
2023-01-13T05:07:29.111Z,8.30
2023-01-13T05:09:16.657Z,5.72
2023-01-13T05:11:23.873Z,7.72
2023-01-13T05:15:36.030Z,8.43
2023-01-13T05:17:25.606Z,8.20
2023-01-13T05:19:12.837Z,6.93
2023-01-13T05:21:00.178Z,5.72
2023-01-13T05:23:06.909Z,5.80
2023-01-13T05:25:14.009Z,6.43
2023-01-13T05:27:01.819Z,8.82
2023-01-13T05:28:49.307Z,6.55
2023-01-13T05:30:38.984Z,5.85
2023-01-13T05:32:30.345Z,7.85
2023-01-13T05:34:17.853Z,10.23
2023-01-13T05:36:05.918Z,6.18
2023-01-13T05:37:55.378Z,6.22
2023-01-13T05:40:02.012Z,8.63
2023-01-13T05:42:07.991Z,7.67
2023-01-13T05:43:55.587Z,7.57
2023-01-13T05:45:43.029Z,9.07
2023-01-13T05:47:31.417Z,9.00
2023-01-13T05:49:18.937Z,9.90
2023-01-13T05:51:08.220Z,9.60
2023-01-13T05:52:55.446Z,11.23
2023-01-13T05:54:43.221Z,8.73
2023-01-13T05:56:30.504Z,18.55
2023-01-13T05:58:19.732Z,27.52
2023-01-13T06:00:08.051Z,8.13
2023-01-13T06:02:01.547Z,9.05
2023-01-13T06:03:49.023Z,11.40
2023-01-13T06:05:36.924Z,10.50
2023-01-13T06:09:11.563Z,5.40
2023-01-13T06:10:58.929Z,7.88
2023-01-13T06:12:46.156Z,7.72
2023-01-13T06:14:42.525Z,13.85
2023-01-13T06:16:30.551Z,20.27
2023-01-13T06:18:18.824Z,40.70
2023-01-13T06:21:57.986Z,45.40
2023-01-13T06:23:45.699Z,12.57
2023-01-13T06:25:55.775Z,16.45
2023-01-13T06:27:43.278Z,16.88
2023-01-13T06:29:30.814Z,14.90
2023-01-13T06:31:18.630Z,12.57
2023-01-13T06:33:11.565Z,14.73
2023-01-13T06:35:05.561Z,9.80
2023-01-13T06:36:55.029Z,11.30
2023-01-13T06:38:47.705Z,12.73
2023-01-13T06:40:35.742Z,17.52
2023-01-13T06:42:41.528Z,19.77
2023-01-13T06:44:29.414Z,39.65
2023-01-13T06:46:16.796Z,31.13
2023-01-13T06:48:04.353Z,55.90
2023-01-13T06:49:52.519Z,55.50
2023-01-13T06:51:39.734Z,28.40
2023-01-13T06:53:27.020Z,17.63
2023-01-13T06:55:14.773Z,25.33
2023-01-13T06:57:02.406Z,32.90
2023-01-13T06:58:49.586Z,25.27
2023-01-13T07:00:37.336Z,18.33
2023-01-13T07:02:24.671Z,13.25
2023-01-13T07:04:12.097Z,12.38
2023-01-13T07:06:02.591Z,7.78
2023-01-13T07:07:49.877Z,14.45
2023-01-13T07:09:37.020Z,14.18
2023-01-13T07:11:25.208Z,10.88
2023-01-13T07:13:31.190Z,10.00
2023-01-13T07:15:18.461Z,9.30
2023-01-13T07:17:06.034Z,9.07
2023-01-13T07:18:54.009Z,6.45
2023-01-13T07:20:41.194Z,9.32
2023-01-13T07:24:16.394Z,7.70
2023-01-13T07:26:04.621Z,10.57
2023-01-13T07:27:52.397Z,9.07
2023-01-13T07:29:40.531Z,12.25
2023-01-13T07:31:27.769Z,12.23
2023-01-13T07:33:15.526Z,10.90
2023-01-13T07:35:05.590Z,5.55
2023-01-13T07:36:52.854Z,8.15
2023-01-13T07:38:40.471Z,12.68
2023-01-13T07:40:27.845Z,9.95
2023-01-13T07:42:33.664Z,12.57
2023-01-13T07:44:21.331Z,11.15
2023-01-13T07:46:08.771Z,7.68
2023-01-13T07:47:56.146Z,12.23
2023-01-13T07:49:43.629Z,14.45
2023-01-13T07:51:31.144Z,16.33
2023-01-13T07:53:19.488Z,15.02
2023-01-13T07:55:07.459Z,11.93
2023-01-13T07:56:56.941Z,12.35
2023-01-13T07:58:44.995Z,8.05
2023-01-13T08:00:32.529Z,9.40
2023-01-13T08:02:20.154Z,11.63
2023-01-13T08:04:07.685Z,10.20
2023-01-13T08:05:55.427Z,21.73
2023-01-13T08:07:42.609Z,10.60
2023-01-13T08:09:30.157Z,7.68
2023-01-13T08:13:18.342Z,10.18
2023-01-13T08:15:06.962Z,9.57
2023-01-13T08:16:54.802Z,8.02
2023-01-13T08:18:43.030Z,12.77
2023-01-13T08:20:30.502Z,15.07
2023-01-13T08:22:20.351Z,11.93
2023-01-13T08:24:10.662Z,11.95
2023-01-13T08:26:06.772Z,13.10
2023-01-13T08:27:55.058Z,8.82
2023-01-13T08:31:29.470Z,14.82
2023-01-13T08:33:17.293Z,10.00
2023-01-13T08:35:04.778Z,9.55
2023-01-13T08:36:52.058Z,12.68
2023-01-13T08:38:41.048Z,23.17
2023-01-13T08:40:28.282Z,25.63
2023-01-13T08:42:15.636Z,24.40
2023-01-13T08:44:03.415Z,15.65
2023-01-13T08:46:02.180Z,13.40
2023-01-13T08:47:49.557Z,15.88
2023-01-13T08:51:24.524Z,11.23
2023-01-13T08:53:11.846Z,6.97
2023-01-13T08:54:59.362Z,7.72
2023-01-13T08:56:47.438Z,9.40
2023-01-13T08:58:34.705Z,9.23
2023-01-13T09:00:22.622Z,10.52
2023-01-13T09:02:14.403Z,6.00
2023-01-13T09:04:02.235Z,6.65
2023-01-13T09:05:49.822Z,11.23
2023-01-13T09:07:38.439Z,10.18
2023-01-13T09:09:27.719Z,13.35
2023-01-13T09:11:38.066Z,17.33
2023-01-13T09:13:25.480Z,6.50
2023-01-13T09:15:14.591Z,9.50
2023-01-13T09:17:02.126Z,5.97
2023-01-13T09:18:51.181Z,7.88
2023-01-13T09:20:41.536Z,7.07
2023-01-13T09:22:29.013Z,10.95
2023-01-13T09:24:16.449Z,7.80
2023-01-13T09:27:51.276Z,6.75
2023-01-13T09:29:38.614Z,9.93
2023-01-13T09:31:26.280Z,7.85
2023-01-13T09:33:32.330Z,7.82
2023-01-13T09:35:19.667Z,6.18
2023-01-13T09:37:07.917Z,9.30
2023-01-13T09:42:59.935Z,9.20
2023-01-13T09:44:50.653Z,8.48
2023-01-13T09:46:53.509Z,6.13
2023-01-13T09:48:52.006Z,5.57
2023-01-13T09:51:07.092Z,6.25
2023-01-13T09:52:55.125Z,6.35
2023-01-13T09:54:45.877Z,6.15
2023-01-13T09:56:33.446Z,5.95
2023-01-13T09:58:21.219Z,6.47
2023-01-13T10:00:21.622Z,6.93
2023-01-13T10:02:17.865Z,7.65
2023-01-13T10:04:11.902Z,10.95
2023-01-13T10:06:06.914Z,11.82
2023-01-13T10:08:02.203Z,5.80
2023-01-13T10:09:53.211Z,7.82
2023-01-13T10:12:04.276Z,5.88
2023-01-13T10:13:58.101Z,6.15
2023-01-13T10:16:11.989Z,6.20
2023-01-13T10:18:13.953Z,5.72
2023-01-13T10:20:07.217Z,9.38
2023-01-13T10:22:17.476Z,6.50
2023-01-13T10:24:46.682Z,8.52
2023-01-13T10:26:58.288Z,7.10
2023-01-13T10:28:54.912Z,12.00
2023-01-13T10:30:44.259Z,5.85
2023-01-13T10:32:31.876Z,13.63
2023-01-13T10:34:20.638Z,13.00
2023-01-13T10:36:16.337Z,11.70
2023-01-13T10:38:03.635Z,11.73
2023-01-13T10:39:56.677Z,12.55
2023-01-13T10:41:44.738Z,11.05
2023-01-13T10:43:32.929Z,11.68
2023-01-13T10:45:25.645Z,12.43
2023-01-13T10:47:31.994Z,10.00
2023-01-13T10:49:39.795Z,13.17
2023-01-13T10:51:37.629Z,8.43
2023-01-13T10:53:25.855Z,7.35
2023-01-13T10:55:28.294Z,6.70
2023-01-13T10:57:20.085Z,6.28
2023-01-13T10:59:18.634Z,15.40
2023-01-13T11:01:07.445Z,15.05
2023-01-13T11:03:22.562Z,11.55
2023-01-13T11:05:24.668Z,9.80
2023-01-13T11:07:29.667Z,7.40
2023-01-13T11:09:22.534Z,8.98
2023-01-13T11:11:38.830Z,9.13
2023-01-13T11:14:02.527Z,10.60
2023-01-13T11:15:57.167Z,8.30
2023-01-13T11:18:01.594Z,6.43
2023-01-13T11:20:00.279Z,6.65
2023-01-13T11:22:12.628Z,7.07
2023-01-13T11:24:29.248Z,5.85
2023-01-13T11:26:23.991Z,10.13
2023-01-13T11:28:42.838Z,11.05
2023-01-13T11:31:13.389Z,4.45
2023-01-13T11:33:15.695Z,6.55
2023-01-13T11:35:14.996Z,5.68
2023-01-13T11:37:09.623Z,6.30
2023-01-13T11:39:05.522Z,8.63
2023-01-13T11:40:53.490Z,7.45
2023-01-13T11:42:49.744Z,43.40
2023-01-13T11:44:48.186Z,11.48
2023-01-13T11:46:36.038Z,9.50
2023-01-13T11:48:28.464Z,42.92
2023-01-13T11:50:25.473Z,13.63
2023-01-13T11:52:28.235Z,22.63
2023-01-13T11:54:24.444Z,6.80
2023-01-13T11:56:59.229Z,5.70
2023-01-13T11:59:16.967Z,7.45
2023-01-13T12:01:13.625Z,11.27
2023-01-13T12:03:12.531Z,7.80
2023-01-13T12:05:25.852Z,9.45
2023-01-13T12:07:22.863Z,8.63
2023-01-13T12:09:25.280Z,10.75
2023-01-13T12:11:19.335Z,44.67
2023-01-13T12:13:51.986Z,25.15
2023-01-13T12:16:06.371Z,21.85
2023-01-13T12:18:26.910Z,32.65
2023-01-13T12:20:23.072Z,6.22
2023-01-13T12:22:36.042Z,8.23
2023-01-13T12:24:30.133Z,9.13
2023-01-13T12:26:18.088Z,10.65
2023-01-13T12:28:19.638Z,8.25
2023-01-13T12:30:31.997Z,6.80
2023-01-13T12:32:25.094Z,6.93
2023-01-13T12:34:30.851Z,9.57
2023-01-13T12:36:25.162Z,5.00
2023-01-13T12:38:16.272Z,5.05
2023-01-13T12:40:28.624Z,6.15
2023-01-13T12:42:45.071Z,7.57
2023-01-13T12:44:32.960Z,7.15
2023-01-13T12:50:24.128Z,4.15
2023-01-13T12:52:16.073Z,7.38
2023-01-13T12:54:41.168Z,5.38
2023-01-13T12:56:37.844Z,5.97
2023-01-13T12:58:28.800Z,8.40
2023-01-13T13:00:16.761Z,7.13
2023-01-13T13:02:26.054Z,5.68
2023-01-13T13:04:19.072Z,5.75
2023-01-13T13:06:35.688Z,14.00
2023-01-13T13:08:44.925Z,18.83
2023-01-13T13:10:36.559Z,5.65
2023-01-13T13:13:00.397Z,7.35
2023-01-13T13:14:48.011Z,8.55
2023-01-13T13:16:45.454Z,6.00
2023-01-13T13:18:32.939Z,6.70
2023-01-13T13:22:26.399Z,6.38
2023-01-13T13:24:13.858Z,9.73
2023-01-13T13:26:25.351Z,13.68
2023-01-13T13:28:18.435Z,11.10
2023-01-13T13:30:18.382Z,9.70
2023-01-13T13:32:14.396Z,15.07
2023-01-13T13:34:04.677Z,7.20
2023-01-13T13:36:06.754Z,8.00
2023-01-13T13:38:15.569Z,7.20
2023-01-13T13:40:29.008Z,7.00
2023-01-13T13:42:36.118Z,8.15
2023-01-13T13:44:50.337Z,5.88
2023-01-13T13:46:47.328Z,54.42
2023-01-13T13:48:35.158Z,16.27
2023-01-13T13:50:22.883Z,31.05
2023-01-13T13:52:30.299Z,12.68
2023-01-13T13:54:21.510Z,7.75
2023-01-13T13:56:21.948Z,8.70
2023-01-13T13:58:17.649Z,10.18
2023-01-13T14:00:26.810Z,6.90
2023-01-13T14:02:27.611Z,16.23
2023-01-13T14:04:20.653Z,6.30
2023-01-13T14:06:21.198Z,7.65
2023-01-13T14:08:18.602Z,7.63
2023-01-13T14:10:12.682Z,11.13
2023-01-13T14:12:04.316Z,8.65
2023-01-13T14:14:05.051Z,10.38
2023-01-13T14:16:18.628Z,8.40
2023-01-13T14:18:14.706Z,7.55
2023-01-13T14:20:12.767Z,7.68
2023-01-13T14:22:04.989Z,9.43
2023-01-13T14:23:58.771Z,7.60
2023-01-13T14:25:49.839Z,8.13
2023-01-13T14:27:43.082Z,7.78
2023-01-13T14:29:30.338Z,11.20
2023-01-13T14:31:18.403Z,11.82
2023-01-13T14:33:06.531Z,19.92
2023-01-13T14:36:47.930Z,12.82
2023-01-13T14:38:35.476Z,12.52
2023-01-13T14:40:38.125Z,52.38
2023-01-13T14:42:29.886Z,30.45
2023-01-13T14:44:36.017Z,14.00
2023-01-13T14:46:25.521Z,48.47
2023-01-13T14:48:14.643Z,39.80
2023-01-13T14:50:02.563Z,73.22
2023-01-13T14:51:49.982Z,41.97
2023-01-13T14:53:47.267Z,22.63
2023-01-13T14:55:41.444Z,16.27
2023-01-13T14:57:33.252Z,15.20
2023-01-13T14:59:43.551Z,15.48
2023-01-13T15:01:36.616Z,14.38
2023-01-13T15:03:24.185Z,12.18
2023-01-13T15:05:17.746Z,13.68
2023-01-13T15:07:12.336Z,14.98
2023-01-13T15:08:59.618Z,14.70
2023-01-13T15:11:00.299Z,22.83
2023-01-13T15:12:52.010Z,32.33
2023-01-13T15:14:39.257Z,18.90
2023-01-13T15:16:28.696Z,31.52
2023-01-13T15:18:17.514Z,23.95
2023-01-13T15:20:12.867Z,19.35
2023-01-13T15:22:00.337Z,14.00
2023-01-13T15:23:47.482Z,13.98
2023-01-13T15:25:37.603Z,17.98
2023-01-13T15:27:26.365Z,18.33
2023-01-13T15:29:17.653Z,11.88
2023-01-13T15:31:05.308Z,13.13
2023-01-13T15:32:55.028Z,19.05
2023-01-13T15:34:42.299Z,13.43
2023-01-13T15:36:31.683Z,13.18
2023-01-13T15:38:21.594Z,14.07
2023-01-13T15:40:15.515Z,14.45
2023-01-13T15:42:22.537Z,16.63
2023-01-13T15:44:33.264Z,18.98
2023-01-13T15:46:38.464Z,17.15
2023-01-13T15:48:28.022Z,12.63
2023-01-13T15:50:16.868Z,10.82
2023-01-13T15:52:12.155Z,17.63
2023-01-13T15:54:02.498Z,20.02
2023-01-13T15:55:52.318Z,15.02
2023-01-13T15:57:48.004Z,14.98
2023-01-13T15:59:35.312Z,12.43
2023-01-13T16:01:23.515Z,20.77
2023-01-13T16:03:15.117Z,21.27
2023-01-13T16:05:02.604Z,17.88
2023-01-13T16:06:49.799Z,20.55
2023-01-13T16:08:37.169Z,39.20
2023-01-13T16:10:28.169Z,22.15
2023-01-13T16:12:15.900Z,17.52
2023-01-13T16:14:03.246Z,18.27
2023-01-13T16:15:50.392Z,16.10
2023-01-13T16:17:37.710Z,16.90
2023-01-13T16:19:25.264Z,23.83
2023-01-13T16:21:13.304Z,20.80
2023-01-13T16:23:00.698Z,43.42
2023-01-13T16:24:48.542Z,35.70
2023-01-13T16:26:37.617Z,30.77
2023-01-13T16:28:28.352Z,26.27
2023-01-13T16:30:24.964Z,21.48
2023-01-13T16:32:12.691Z,22.08
2023-01-13T16:36:11.781Z,21.67
2023-01-13T16:37:58.486Z,20.80
2023-01-13T16:39:46.074Z,19.67
2023-01-13T16:41:33.877Z,18.38
2023-01-13T16:43:21.459Z,13.07
2023-01-13T16:45:09.650Z,12.88
2023-01-13T16:48:43.888Z,13.35
2023-01-13T16:50:37.552Z,10.48
2023-01-13T16:52:24.931Z,14.88
2023-01-13T16:54:12.295Z,19.83
2023-01-13T16:56:00.035Z,19.88
2023-01-13T16:57:48.064Z,16.17
2023-01-13T16:59:35.420Z,13.65
2023-01-13T17:01:27.055Z,13.75
2023-01-13T17:03:15.649Z,16.83
2023-01-13T17:05:03.339Z,17.50
2023-01-13T17:08:40.567Z,19.73
2023-01-13T17:10:28.299Z,19.27
2023-01-13T17:16:14.525Z,20.63
2023-01-13T17:18:02.723Z,26.58
2023-01-13T17:21:37.671Z,33.38
2023-01-13T17:23:25.398Z,36.38
2023-01-13T17:25:14.350Z,37.97
2023-01-13T17:27:01.694Z,26.00
2023-01-13T17:28:49.526Z,20.60
2023-01-13T17:30:37.448Z,34.97
2023-01-13T17:32:24.854Z,26.58
2023-01-13T17:34:13.032Z,30.95
2023-01-13T17:36:01.862Z,25.95
2023-01-13T17:37:49.012Z,27.60
2023-01-13T17:39:36.752Z,22.13
2023-01-13T17:41:26.882Z,29.92
2023-01-13T17:43:14.135Z,26.15
2023-01-13T17:45:02.185Z,24.00
2023-01-13T17:46:49.930Z,24.10
2023-01-13T17:48:37.378Z,20.58
2023-01-13T17:50:27.680Z,25.27
2023-01-13T17:52:15.065Z,30.55
2023-01-13T17:54:02.300Z,18.25
2023-01-13T17:55:51.926Z,17.25
2023-01-13T17:57:39.720Z,20.38
2023-01-13T17:59:27.082Z,40.10
2023-01-13T18:01:17.845Z,30.98
2023-01-13T18:03:05.128Z,31.17
2023-01-13T18:04:52.579Z,29.98
2023-01-13T18:06:40.297Z,24.40
2023-01-13T18:08:27.902Z,49.80
2023-01-13T18:10:15.787Z,31.55
2023-01-13T18:12:04.516Z,32.03
2023-01-13T18:13:57.244Z,28.92
2023-01-13T18:15:44.445Z,30.75
2023-01-13T18:17:31.855Z,24.92
2023-01-13T18:19:37.690Z,30.98
2023-01-13T18:21:44.974Z,32.38
2023-01-13T18:23:50.840Z,36.55
2023-01-13T18:26:05.882Z,31.35
2023-01-13T18:27:54.144Z,27.50
2023-01-13T18:31:29.020Z,35.05
2023-01-13T18:33:16.486Z,23.38
2023-01-13T18:35:07.396Z,31.65
2023-01-13T18:36:54.879Z,27.73
2023-01-13T18:42:36.227Z,49.40
2023-01-13T18:44:23.862Z,123.90
2023-01-13T18:46:12.712Z,230.18
2023-01-13T18:48:02.211Z,178.18
2023-01-13T18:49:50.326Z,135.75
2023-01-13T18:53:26.126Z,54.42
2023-01-13T18:55:14.052Z,34.95
2023-01-13T18:57:02.918Z,33.15
2023-01-13T18:58:53.558Z,24.73
2023-01-13T19:00:41.346Z,19.30
2023-01-13T19:02:30.227Z,24.60
2023-01-13T19:04:18.483Z,37.78
2023-01-13T19:06:11.759Z,62.95
2023-01-13T19:07:59.621Z,59.92
2023-01-13T19:09:49.939Z,28.70
2023-01-13T19:11:37.705Z,27.73
2023-01-13T19:13:24.939Z,40.25
2023-01-13T19:15:12.353Z,30.58
2023-01-13T19:17:20.262Z,34.95
2023-01-13T19:19:08.501Z,28.95
2023-01-13T19:20:55.657Z,19.38
2023-01-13T19:22:43.372Z,27.83
2023-01-13T19:24:30.788Z,31.67
2023-01-13T19:26:23.997Z,37.20
2023-01-13T19:28:11.651Z,31.92
2023-01-13T19:30:00.747Z,37.13
2023-01-13T19:31:49.233Z,32.08
2023-01-13T19:33:40.037Z,38.50
2023-01-13T19:35:27.518Z,30.83
2023-01-13T19:37:15.202Z,24.63
2023-01-13T19:40:58.530Z,32.42
2023-01-13T19:43:04.160Z,26.35
2023-01-13T19:45:10.509Z,32.30
2023-01-13T19:46:58.519Z,45.75
2023-01-13T19:48:45.892Z,34.13
2023-01-13T19:50:38.636Z,32.47
2023-01-13T19:52:26.722Z,31.27
2023-01-13T19:56:02.074Z,36.28
2023-01-13T19:57:50.035Z,30.83
2023-01-13T19:59:41.362Z,34.90
2023-01-13T20:01:33.152Z,42.40
2023-01-13T20:03:31.138Z,39.72
2023-01-13T20:05:26.248Z,34.33
2023-01-13T20:07:14.676Z,27.67
2023-01-13T20:09:02.355Z,27.88
2023-01-13T20:10:50.554Z,40.40
2023-01-13T20:16:14.395Z,25.27
2023-01-13T20:18:01.726Z,39.10
2023-01-13T20:19:49.927Z,29.02
2023-01-13T20:21:40.220Z,36.22
2023-01-13T20:23:29.432Z,28.50
2023-01-13T20:25:18.904Z,18.27
2023-01-13T20:27:07.306Z,16.75
2023-01-13T20:28:55.317Z,20.08
2023-01-13T20:34:38.850Z,18.35
2023-01-13T20:36:31.664Z,19.48
